Time;durP1;ratioP1;P1;durP2;ratioP2;P2;SDS_P1;SDS_P2;PMS_P1;PMS_P2;Temp;Humidity;BMP_temperature;BMP_pressure;BME280_temperature;BME280_humidity;BME280_pressure;Samples;Min_cycle;Max_cycle;Signal;HPM_P1;HPM_P2
2022/10/19 00:00:49;;;;;;;11.10;6.80;;;;;;;;;;5071471;28;20231;-78
2022/10/19 00:03:16;;;;;;;10.00;6.70;;;;;;;;;;5071163;28;20239;-79
2022/10/19 00:05:43;;;;;;;10.87;6.57;;;;;;;;;;5071860;28;20209;-79
2022/10/19 00:08:11;;;;;;;22.37;7.50;;;;;;;;;;5070760;28;20229;-79
2022/10/19 00:10:41;;;;;;;16.30;7.60;;;;;;;;;;5071365;28;20665;-79
2022/10/19 00:13:08;;;;;;;11.43;7.57;;;;;;;;;;5070997;28;20217;-79
2022/10/19 00:15:39;;;;;;;29.27;7.60;;;;;;;;;;5071804;28;20210;-79
2022/10/19 00:18:06;;;;;;;17.13;7.13;;;;;;;;;;5071069;28;20236;-79
2022/10/19 00:20:33;;;;;;;12.93;7.20;;;;;;;;;;5071443;28;20213;-79
2022/10/19 00:23:00;;;;;;;19.63;8.27;;;;;;;;;;5071128;28;20645;-78
2022/10/19 00:25:27;;;;;;;28.73;8.60;;;;;;;;;;5071355;28;20231;-79
2022/10/19 00:27:55;;;;;;;13.40;7.83;;;;;;;;;;5070815;28;20241;-79
2022/10/19 00:30:22;;;;;;;17.77;7.73;;;;;;;;;;5071565;28;20216;-79
2022/10/19 00:32:50;;;;;;;24.27;8.43;;;;;;;;;;5070910;28;20328;-78
2022/10/19 00:35:17;;;;;;;19.37;9.10;;;;;;;;;;5071638;28;20566;-79
2022/10/19 00:37:44;;;;;;;13.27;7.83;;;;;;;;;;5070610;28;20231;-79
2022/10/19 00:40:11;;;;;;;14.27;7.30;;;;;;;;;;5071461;28;20209;-79
2022/10/19 00:42:38;;;;;;;22.23;7.53;;;;;;;;;;5070510;28;20239;-79
2022/10/19 00:45:13;;;;;;;16.27;7.63;;;;;;;;;;5071606;28;20710;-79
2022/10/19 00:47:40;;;;;;;12.50;7.27;;;;;;;;;;5070402;28;20229;-78
2022/10/19 00:50:08;;;;;;;16.63;7.33;;;;;;;;;;5071435;28;20201;-79
2022/10/19 00:52:35;;;;;;;21.53;8.37;;;;;;;;;;5070876;28;20225;-79
2022/10/19 00:55:02;;;;;;;9.60;6.93;;;;;;;;;;5071039;28;20611;-79
2022/10/19 00:57:30;;;;;;;12.80;6.80;;;;;;;;;;5066067;28;20693;-79
2022/10/19 00:59:59;;;;;;;13.37;8.73;;;;;;;;;;5080274;28;20209;-79
2022/10/19 01:02:27;;;;;;;15.80;7.60;;;;;;;;;;5081349;27;20232;-79
2022/10/19 01:04:54;;;;;;;27.87;8.30;;;;;;;;;;5067707;28;20201;-79
2022/10/19 01:07:21;;;;;;;20.50;7.60;;;;;;;;;;5070345;28;20577;-78
2022/10/19 01:09:48;;;;;;;12.07;7.20;;;;;;;;;;5070537;28;20229;-79
2022/10/19 01:12:30;;;;;;;13.00;7.70;;;;;;;;;;5070921;28;20233;-79
2022/10/19 01:15:04;;;;;;;11.20;7.23;;;;;;;;;;5068882;28;20212;-79
2022/10/19 01:17:36;;;;;;;19.37;7.67;;;;;;;;;;5070343;28;20233;-78
2022/10/19 01:20:21;;;;;;;15.27;7.73;;;;;;;;;;5070968;28;20207;-79
2022/10/19 01:22:57;;;;;;;12.53;7.67;;;;;;;;;;5063390;28;20233;-79
2022/10/19 01:25:25;;;;;;;14.00;7.90;;;;;;;;;;5070968;28;20201;-79
2022/10/19 01:28:03;;;;;;;18.03;7.87;;;;;;;;;;5070242;28;20236;-79
2022/10/19 01:30:38;;;;;;;13.77;8.10;;;;;;;;;;5071165;28;20189;-79
2022/10/19 01:33:14;;;;;;;15.80;8.10;;;;;;;;;;5070620;28;20236;-79
2022/10/19 01:35:45;;;;;;;15.63;7.90;;;;;;;;;;5071429;28;20212;-79
2022/10/19 01:38:18;;;;;;;18.20;8.57;;;;;;;;;;5073718;28;20240;-79
2022/10/19 01:40:49;;;;;;;29.70;9.53;;;;;;;;;;5073364;28;20216;-79
2022/10/19 01:43:20;;;;;;;41.27;11.73;;;;;;;;;;5073880;28;20237;-78
2022/10/19 01:45:51;;;;;;;29.70;10.27;;;;;;;;;;5074308;28;20209;-79
2022/10/19 01:48:19;;;;;;;19.73;9.93;;;;;;;;;;5066608;28;20229;-79
2022/10/19 01:50:49;;;;;;;38.77;9.77;;;;;;;;;;5074275;28;20201;-79
2022/10/19 01:53:18;;;;;;;33.70;10.73;;;;;;;;;;5073551;28;20225;-79
2022/10/19 01:55:46;;;;;;;52.10;11.60;;;;;;;;;;5074331;28;20216;-79
2022/10/19 01:58:15;;;;;;;40.43;10.80;;;;;;;;;;5062468;28;20255;-79
2022/10/19 02:00:43;;;;;;;25.17;9.43;;;;;;;;;;5073803;28;20202;-79
2022/10/19 02:03:12;;;;;;;26.90;9.40;;;;;;;;;;5073132;28;20236;-79
2022/10/19 02:05:41;;;;;;;24.73;9.90;;;;;;;;;;5073873;28;20665;-79
2022/10/19 02:08:11;;;;;;;30.87;9.73;;;;;;;;;;5072777;28;20241;-79
2022/10/19 02:10:39;;;;;;;23.20;10.07;;;;;;;;;;5073909;28;20209;-79
2022/10/19 02:13:07;;;;;;;25.30;9.83;;;;;;;;;;5073258;28;20343;-79
2022/10/19 02:15:36;;;;;;;26.73;9.33;;;;;;;;;;5073540;28;20572;-78
2022/10/19 02:18:04;;;;;;;20.70;9.03;;;;;;;;;;5073000;28;20676;-79
2022/10/19 02:20:32;;;;;;;19.20;8.67;;;;;;;;;;5073317;28;20209;-79
2022/10/19 02:22:59;;;;;;;27.17;10.40;;;;;;;;;;5072611;28;20263;-79
2022/10/19 02:25:26;;;;;;;49.23;11.17;;;;;;;;;;5073418;28;20205;-79
2022/10/19 02:27:54;;;;;;;28.03;10.93;;;;;;;;;;5072537;28;20240;-79
2022/10/19 02:30:21;;;;;;;29.50;10.33;;;;;;;;;;5073052;28;20674;-79
2022/10/19 02:32:49;;;;;;;21.20;10.47;;;;;;;;;;5072973;28;20291;-79
2022/10/19 02:35:17;;;;;;;23.73;10.27;;;;;;;;;;5073455;28;20201;-79
2022/10/19 02:37:45;;;;;;;26.87;10.33;;;;;;;;;;5072433;28;20236;-79
2022/10/19 02:40:13;;;;;;;40.93;11.80;;;;;;;;;;5073112;28;20202;-79
2022/10/19 02:42:42;;;;;;;23.97;10.73;;;;;;;;;;5072714;28;20320;-79
2022/10/19 02:45:11;;;;;;;41.30;12.23;;;;;;;;;;5073373;28;20205;-76
2022/10/19 02:47:40;;;;;;;39.00;11.13;;;;;;;;;;5072184;28;20236;-77
2022/10/19 02:50:09;;;;;;;37.23;11.43;;;;;;;;;;5072736;28;20200;-77
2022/10/19 02:52:37;;;;;;;37.50;12.50;;;;;;;;;;5072695;28;20244;-77
2022/10/19 02:55:06;;;;;;;42.40;12.57;;;;;;;;;;5073093;28;20217;-77
2022/10/19 02:57:33;;;;;;;37.90;11.07;;;;;;;;;;5071995;28;20221;-77
2022/10/19 03:00:00;;;;;;;45.77;13.07;;;;;;;;;;5073428;28;20205;-76
2022/10/19 03:02:27;;;;;;;48.60;12.43;;;;;;;;;;5072020;28;20252;-77
2022/10/19 03:04:54;;;;;;;47.00;12.57;;;;;;;;;;5073065;28;20205;-77
2022/10/19 03:07:22;;;;;;;54.93;13.70;;;;;;;;;;5071890;28;20232;-78
2022/10/19 03:09:49;;;;;;;51.30;13.57;;;;;;;;;;5072770;28;20582;-77
2022/10/19 03:12:18;;;;;;;34.80;12.47;;;;;;;;;;5072213;28;20229;-78
2022/10/19 03:14:45;;;;;;;45.93;13.63;;;;;;;;;;5072750;28;20295;-77
2022/10/19 03:17:12;;;;;;;44.33;12.70;;;;;;;;;;5068633;28;20260;-77
2022/10/19 03:19:40;;;;;;;53.27;14.43;;;;;;;;;;5072435;28;20218;-78
2022/10/19 03:22:07;;;;;;;56.50;15.17;;;;;;;;;;5072019;28;20700;-78
2022/10/19 03:24:34;;;;;;;49.57;16.20;;;;;;;;;;5072338;28;20561;-77
2022/10/19 03:27:01;;;;;;;47.67;17.07;;;;;;;;;;5072059;28;20209;-77
2022/10/19 03:29:30;;;;;;;49.00;17.23;;;;;;;;;;5071268;28;20620;-77
2022/10/19 03:31:57;;;;;;;48.07;16.07;;;;;;;;;;5068603;28;20211;-77
2022/10/19 03:34:24;;;;;;;42.30;16.53;;;;;;;;;;5071178;28;20213;-77
2022/10/19 03:36:51;;;;;;;36.83;15.43;;;;;;;;;;5070649;28;20205;-78
2022/10/19 03:39:18;;;;;;;38.10;15.83;;;;;;;;;;5072005;28;20221;-77
2022/10/19 03:41:45;;;;;;;35.40;15.20;;;;;;;;;;5071414;28;20221;-77
2022/10/19 03:44:12;;;;;;;28.00;14.13;;;;;;;;;;5072176;28;20193;-77
2022/10/19 03:46:41;;;;;;;32.67;14.17;;;;;;;;;;5070523;28;20586;-77
2022/10/19 03:49:08;;;;;;;35.20;14.27;;;;;;;;;;5060103;28;20244;-77
2022/10/19 03:51:36;;;;;;;32.37;13.63;;;;;;;;;;5063920;28;20209;-77
2022/10/19 03:54:04;;;;;;;29.80;13.93;;;;;;;;;;5071618;28;20233;-77
2022/10/19 03:56:32;;;;;;;25.63;13.50;;;;;;;;;;5072035;28;20205;-77
2022/10/19 03:59:01;;;;;;;30.33;13.97;;;;;;;;;;5070754;28;20248;-77
2022/10/19 04:01:28;;;;;;;28.80;12.70;;;;;;;;;;5071875;28;20209;-77
2022/10/19 04:03:57;;;;;;;27.47;12.93;;;;;;;;;;5070433;28;20248;-79
2022/10/19 04:06:26;;;;;;;23.20;12.87;;;;;;;;;;5070089;28;20209;-77
2022/10/19 04:08:53;;;;;;;24.23;12.97;;;;;;;;;;5070810;28;20697;-78
2022/10/19 04:11:21;;;;;;;28.97;13.23;;;;;;;;;;5071811;28;20299;-78
2022/10/19 04:13:49;;;;;;;23.33;13.37;;;;;;;;;;5071097;28;20241;-77
2022/10/19 04:16:16;;;;;;;30.83;14.23;;;;;;;;;;5071619;28;20708;-77
2022/10/19 04:18:43;;;;;;;21.43;12.13;;;;;;;;;;5070789;28;20255;-77
2022/10/19 04:21:20;;;;;;;33.07;14.53;;;;;;;;;;5071550;28;20197;-77
2022/10/19 04:23:47;;;;;;;30.77;13.13;;;;;;;;;;5070896;28;20714;-77
2022/10/19 04:26:15;;;;;;;29.63;13.17;;;;;;;;;;5071952;28;20205;-77
2022/10/19 04:28:45;;;;;;;24.97;12.57;;;;;;;;;;5071457;28;20236;-77
2022/10/19 04:31:12;;;;;;;26.10;12.63;;;;;;;;;;5072212;28;20197;-77
2022/10/19 04:33:39;;;;;;;34.60;14.73;;;;;;;;;;5071599;28;20712;-78
2022/10/19 04:36:07;;;;;;;30.43;13.17;;;;;;;;;;5073369;28;20680;-78
2022/10/19 04:38:36;;;;;;;32.60;13.57;;;;;;;;;;5081085;28;20261;-78
2022/10/19 04:41:04;;;;;;;25.97;13.23;;;;;;;;;;5088089;28;20557;-77
2022/10/19 04:43:31;;;;;;;30.70;12.63;;;;;;;;;;5085569;28;20253;-78
2022/10/19 04:46:02;;;;;;;27.43;13.87;;;;;;;;;;5084018;28;20207;-78
2022/10/19 04:48:29;;;;;;;28.10;13.23;;;;;;;;;;5085185;28;20281;-80
2022/10/19 04:50:56;;;;;;;24.93;13.57;;;;;;;;;;5079667;28;20206;-80
2022/10/19 04:53:23;;;;;;;29.03;12.87;;;;;;;;;;5070677;28;20241;-80
2022/10/19 04:55:52;;;;;;;26.47;13.30;;;;;;;;;;5072089;28;20273;-80
2022/10/19 04:58:19;;;;;;;27.00;12.87;;;;;;;;;;5071003;28;20239;-80
2022/10/19 05:00:46;;;;;;;23.87;13.47;;;;;;;;;;5071821;28;20213;-79
2022/10/19 05:03:13;;;;;;;29.97;12.33;;;;;;;;;;5071563;28;20233;-80
2022/10/19 05:05:40;;;;;;;23.57;12.47;;;;;;;;;;5072202;28;20202;-80
2022/10/19 05:08:08;;;;;;;27.90;12.77;;;;;;;;;;5072040;28;20897;-79
2022/10/19 05:10:35;;;;;;;27.90;13.37;;;;;;;;;;5072673;28;20197;-79
2022/10/19 05:13:03;;;;;;;28.23;12.63;;;;;;;;;;5078323;28;20236;-79
2022/10/19 05:15:31;;;;;;;21.87;13.03;;;;;;;;;;5096767;28;20205;-80
2022/10/19 05:17:58;;;;;;;23.63;12.93;;;;;;;;;;5095571;27;20248;-79
2022/10/19 05:20:26;;;;;;;23.23;13.20;;;;;;;;;;5096096;28;20212;-79
2022/10/19 05:22:53;;;;;;;25.30;13.07;;;;;;;;;;5095286;28;20237;-79
2022/10/19 05:25:20;;;;;;;21.87;12.00;;;;;;;;;;5095736;28;20748;-79
2022/10/19 05:27:51;;;;;;;22.27;12.23;;;;;;;;;;5094964;27;20236;-80
2022/10/19 05:30:20;;;;;;;29.87;13.10;;;;;;;;;;5095921;28;20224;-79
2022/10/19 05:32:47;;;;;;;21.37;11.77;;;;;;;;;;5095052;27;20232;-79
2022/10/19 05:35:14;;;;;;;21.53;12.93;;;;;;;;;;5095472;28;20212;-79
2022/10/19 05:37:42;;;;;;;27.83;12.97;;;;;;;;;;5094791;28;20239;-79
2022/10/19 05:40:10;;;;;;;26.80;12.00;;;;;;;;;;5095157;28;20201;-79
2022/10/19 05:42:37;;;;;;;21.30;11.93;;;;;;;;;;5094930;27;20229;-79
2022/10/19 05:45:04;;;;;;;29.80;13.60;;;;;;;;;;5095563;28;20305;-79
2022/10/19 05:47:32;;;;;;;22.13;12.87;;;;;;;;;;5094035;27;20230;-78
2022/10/19 05:50:00;;;;;;;21.83;12.70;;;;;;;;;;5094760;28;20192;-79
2022/10/19 05:52:36;;;;;;;23.47;11.93;;;;;;;;;;5094668;27;20591;-79
2022/10/19 05:55:03;;;;;;;23.73;12.73;;;;;;;;;;5096225;28;20204;-78
2022/10/19 05:57:32;;;;;;;21.97;12.33;;;;;;;;;;5100014;27;20704;-79
2022/10/19 05:59:59;;;;;;;19.87;11.67;;;;;;;;;;5080956;28;20198;-78
2022/10/19 06:02:26;;;;;;;22.63;12.57;;;;;;;;;;5073993;28;20319;-78
2022/10/19 06:04:54;;;;;;;18.70;11.23;;;;;;;;;;5074308;28;20211;-78
2022/10/19 06:07:22;;;;;;;21.67;11.37;;;;;;;;;;5073640;28;20225;-79
2022/10/19 06:09:49;;;;;;;21.43;11.83;;;;;;;;;;5073993;28;20273;-79
2022/10/19 06:12:16;;;;;;;18.67;11.90;;;;;;;;;;5073529;28;20235;-78
2022/10/19 06:14:43;;;;;;;17.40;11.67;;;;;;;;;;5073977;28;20205;-78
2022/10/19 06:17:10;;;;;;;23.33;12.27;;;;;;;;;;5073643;28;20233;-78
2022/10/19 06:19:37;;;;;;;18.47;11.33;;;;;;;;;;5073638;28;20700;-78
2022/10/19 06:22:06;;;;;;;21.87;10.90;;;;;;;;;;5072861;28;20236;-78
2022/10/19 06:24:33;;;;;;;22.40;11.10;;;;;;;;;;5073429;28;20233;-78
2022/10/19 06:27:00;;;;;;;19.70;10.77;;;;;;;;;;5073573;28;20846;-79
2022/10/19 06:29:27;;;;;;;22.97;11.83;;;;;;;;;;5068083;28;20222;-78
2022/10/19 06:31:55;;;;;;;20.00;11.83;;;;;;;;;;5082492;28;20211;-79
2022/10/19 06:34:22;;;;;;;18.43;11.37;;;;;;;;;;5073040;28;20200;-78
2022/10/19 06:36:49;;;;;;;23.03;11.30;;;;;;;;;;5072866;28;20263;-79
2022/10/19 06:39:18;;;;;;;29.23;12.30;;;;;;;;;;5076036;28;20628;-79
2022/10/19 06:41:45;;;;;;;23.53;12.73;;;;;;;;;;5077282;28;20209;-80
2022/10/19 06:44:12;;;;;;;22.43;12.60;;;;;;;;;;5075686;28;20228;-79
2022/10/19 06:46:39;;;;;;;25.10;13.20;;;;;;;;;;5073194;28;20265;-79
2022/10/19 06:49:06;;;;;;;30.53;12.87;;;;;;;;;;5072000;28;20240;-78
2022/10/19 06:51:34;;;;;;;24.13;12.00;;;;;;;;;;5073210;28;20688;-79
2022/10/19 06:54:01;;;;;;;28.87;12.87;;;;;;;;;;5072438;28;20229;-78
2022/10/19 06:56:29;;;;;;;20.70;11.63;;;;;;;;;;5072618;28;20213;-78
2022/10/19 06:58:56;;;;;;;21.67;12.77;;;;;;;;;;5071975;28;20237;-79
2022/10/19 07:01:24;;;;;;;29.17;13.40;;;;;;;;;;5082282;28;20208;-78
2022/10/19 07:03:51;;;;;;;20.93;12.20;;;;;;;;;;5072508;28;20229;-78
2022/10/19 07:06:18;;;;;;;24.53;12.53;;;;;;;;;;5072510;28;20197;-79
2022/10/19 07:08:45;;;;;;;23.87;12.33;;;;;;;;;;5072402;28;20288;-79
2022/10/19 07:11:15;;;;;;;22.07;12.53;;;;;;;;;;5072591;28;20831;-79
2022/10/19 07:13:43;;;;;;;19.57;11.57;;;;;;;;;;5072026;28;20751;-79
2022/10/19 07:16:12;;;;;;;20.30;11.10;;;;;;;;;;5072262;28;20212;-79
2022/10/19 07:18:40;;;;;;;22.47;11.23;;;;;;;;;;5071368;28;20295;-79
2022/10/19 07:21:08;;;;;;;17.37;10.70;;;;;;;;;;5072458;28;20209;-79
2022/10/19 07:23:36;;;;;;;19.67;11.93;;;;;;;;;;5073187;28;20666;-78
2022/10/19 07:26:04;;;;;;;22.57;11.30;;;;;;;;;;5092473;28;20209;-78
2022/10/19 07:28:31;;;;;;;24.97;10.83;;;;;;;;;;5089418;27;20645;-78
2022/10/19 07:31:05;;;;;;;17.80;10.37;;;;;;;;;;5077146;28;20202;-79
2022/10/19 07:33:32;;;;;;;24.80;11.67;;;;;;;;;;5070626;28;20253;-78
2022/10/19 07:35:59;;;;;;;22.67;11.50;;;;;;;;;;5072157;28;20213;-78
2022/10/19 07:38:26;;;;;;;23.53;11.40;;;;;;;;;;5070874;28;20240;-78
2022/10/19 07:41:00;;;;;;;21.73;11.03;;;;;;;;;;5072013;28;20576;-78
2022/10/19 07:43:27;;;;;;;23.60;11.57;;;;;;;;;;5071126;28;20233;-80
2022/10/19 07:45:57;;;;;;;25.83;12.00;;;;;;;;;;5071869;28;20219;-80
2022/10/19 07:48:26;;;;;;;21.30;12.47;;;;;;;;;;5070743;28;20240;-78
2022/10/19 07:50:53;;;;;;;26.00;12.23;;;;;;;;;;5071239;28;20217;-79
2022/10/19 07:53:20;;;;;;;23.70;12.33;;;;;;;;;;5070941;28;20237;-79
2022/10/19 07:55:47;;;;;;;20.60;11.83;;;;;;;;;;5071705;28;20209;-79
2022/10/19 07:58:14;;;;;;;22.93;11.43;;;;;;;;;;5070694;28;20237;-79
2022/10/19 08:00:41;;;;;;;25.90;12.77;;;;;;;;;;5091554;28;20205;-79
2022/10/19 08:03:09;;;;;;;26.83;14.20;;;;;;;;;;5091117;27;20607;-79
2022/10/19 08:05:37;;;;;;;27.37;13.37;;;;;;;;;;5091781;28;20205;-79
2022/10/19 08:08:04;;;;;;;25.73;13.37;;;;;;;;;;5091130;28;20574;-79
2022/10/19 08:10:31;;;;;;;25.30;13.20;;;;;;;;;;5091489;28;20211;-79
2022/10/19 08:12:58;;;;;;;24.77;12.93;;;;;;;;;;5091079;27;20232;-79
2022/10/19 08:15:27;;;;;;;25.27;13.13;;;;;;;;;;5091785;28;20193;-79
2022/10/19 08:17:54;;;;;;;27.57;12.67;;;;;;;;;;5090958;27;20237;-79
2022/10/19 08:20:21;;;;;;;20.90;11.87;;;;;;;;;;5091735;28;20196;-79
2022/10/19 08:22:50;;;;;;;28.27;12.87;;;;;;;;;;5091148;27;20232;-78
2022/10/19 08:25:17;;;;;;;25.37;13.70;;;;;;;;;;5091442;28;20203;-79
2022/10/19 08:27:44;;;;;;;28.43;13.87;;;;;;;;;;5090826;27;20272;-79
2022/10/19 08:30:11;;;;;;;35.47;13.70;;;;;;;;;;5091243;28;20204;-79
2022/10/19 08:32:38;;;;;;;28.77;13.47;;;;;;;;;;5090961;27;20243;-79
2022/10/19 08:35:06;;;;;;;31.40;13.83;;;;;;;;;;5091489;28;20573;-79
2022/10/19 08:37:33;;;;;;;28.10;14.33;;;;;;;;;;5090711;27;20228;-79
2022/10/19 08:40:02;;;;;;;27.13;13.87;;;;;;;;;;5091312;28;20197;-79
2022/10/19 08:42:32;;;;;;;27.17;13.93;;;;;;;;;;5091011;27;20240;-79
2022/10/19 08:45:17;;;;;;;24.87;14.60;;;;;;;;;;5092776;28;20204;-79
2022/10/19 08:47:49;;;;;;;26.33;13.53;;;;;;;;;;5094520;27;20235;-79
2022/10/19 08:50:18;;;;;;;26.33;14.57;;;;;;;;;;5095538;28;20250;-78
2022/10/19 08:52:48;;;;;;;24.13;12.47;;;;;;;;;;5095156;27;20232;-79
2022/10/19 08:55:20;;;;;;;22.93;13.07;;;;;;;;;;5095036;28;20691;-78
2022/10/19 08:57:51;;;;;;;21.83;12.77;;;;;;;;;;5094504;27;20232;-78
2022/10/19 09:00:21;;;;;;;26.93;12.87;;;;;;;;;;5077942;28;20231;-80
2022/10/19 09:02:55;;;;;;;21.87;11.47;;;;;;;;;;5074451;28;20229;-78
2022/10/19 09:05:24;;;;;;;18.60;11.40;;;;;;;;;;5074700;28;20224;-78
2022/10/19 09:07:54;;;;;;;18.03;11.63;;;;;;;;;;5073889;28;20233;-79
2022/10/19 09:10:24;;;;;;;17.63;11.40;;;;;;;;;;5074164;28;20216;-79
2022/10/19 09:12:54;;;;;;;19.10;11.00;;;;;;;;;;5073991;28;20704;-79
2022/10/19 09:15:26;;;;;;;21.47;10.90;;;;;;;;;;5074097;28;20208;-79
2022/10/19 09:17:53;;;;;;;16.67;10.80;;;;;;;;;;5073821;28;20240;-79
2022/10/19 09:20:21;;;;;;;17.70;11.23;;;;;;;;;;5074159;28;20205;-78
2022/10/19 09:22:51;;;;;;;17.37;11.77;;;;;;;;;;5073850;28;20805;-79
2022/10/19 09:25:20;;;;;;;20.53;10.67;;;;;;;;;;5073978;28;20716;-79
2022/10/19 09:27:50;;;;;;;22.33;11.40;;;;;;;;;;5073362;28;20235;-79
2022/10/19 09:30:18;;;;;;;18.00;10.43;;;;;;;;;;5073979;28;20205;-79
2022/10/19 09:32:46;;;;;;;20.60;11.13;;;;;;;;;;5073910;28;20237;-78
2022/10/19 09:35:20;;;;;;;18.70;10.07;;;;;;;;;;5073518;28;20201;-78
2022/10/19 09:37:49;;;;;;;15.73;9.87;;;;;;;;;;5073219;28;20239;-78
2022/10/19 09:40:18;;;;;;;17.37;10.17;;;;;;;;;;5073885;28;20205;-79
2022/10/19 09:42:46;;;;;;;14.80;9.87;;;;;;;;;;5073576;28;20233;-78
2022/10/19 09:45:18;;;;;;;18.33;9.80;;;;;;;;;;5073585;28;20221;-78
2022/10/19 09:47:48;;;;;;;14.27;9.37;;;;;;;;;;5072729;28;20233;-79
2022/10/19 09:50:17;;;;;;;14.57;9.37;;;;;;;;;;5073794;28;20204;-78
2022/10/19 09:52:45;;;;;;;15.83;10.13;;;;;;;;;;5073243;28;20244;-78
2022/10/19 09:55:23;;;;;;;18.87;10.03;;;;;;;;;;5073656;28;20227;-79
2022/10/19 09:57:51;;;;;;;12.93;9.37;;;;;;;;;;5071996;28;20245;-78
2022/10/19 10:00:21;;;;;;;17.10;9.43;;;;;;;;;;5090551;28;20201;-78
2022/10/19 10:02:51;;;;;;;13.30;9.10;;;;;;;;;;5093139;27;20708;-78
2022/10/19 10:05:19;;;;;;;14.33;9.33;;;;;;;;;;5093602;28;20243;-78
2022/10/19 10:07:46;;;;;;;15.03;8.73;;;;;;;;;;5093064;27;20236;-78
2022/10/19 10:10:21;;;;;;;15.13;9.13;;;;;;;;;;5093625;28;20673;-79
2022/10/19 10:12:48;;;;;;;11.27;8.73;;;;;;;;;;5093451;27;20238;-78
2022/10/19 10:15:17;;;;;;;14.07;8.90;;;;;;;;;;5075134;28;20201;-78
2022/10/19 10:17:47;;;;;;;15.47;9.40;;;;;;;;;;5072589;28;20240;-78
2022/10/19 10:20:23;;;;;;;13.40;8.33;;;;;;;;;;5073250;28;20247;-78
2022/10/19 10:22:56;;;;;;;11.67;8.47;;;;;;;;;;5072802;28;20229;-78
2022/10/19 10:25:25;;;;;;;14.43;8.47;;;;;;;;;;5072774;28;20229;-77
2022/10/19 10:27:56;;;;;;;14.77;8.33;;;;;;;;;;5072316;28;20597;-78
2022/10/19 10:30:24;;;;;;;21.53;11.80;;;;;;;;;;5072952;28;20209;-78
2022/10/19 10:32:53;;;;;;;13.83;8.70;;;;;;;;;;5072434;28;20240;-78
2022/10/19 10:35:22;;;;;;;11.10;8.70;;;;;;;;;;5072949;28;20201;-78
2022/10/19 10:37:49;;;;;;;11.53;7.67;;;;;;;;;;5071592;28;20243;-78
2022/10/19 10:40:21;;;;;;;11.23;8.03;;;;;;;;;;5072758;28;20202;-78
2022/10/19 10:42:49;;;;;;;15.50;8.57;;;;;;;;;;5072345;28;20731;-78
2022/10/19 10:45:18;;;;;;;12.03;7.97;;;;;;;;;;5072472;28;20229;-78
2022/10/19 10:47:47;;;;;;;12.93;8.30;;;;;;;;;;5071751;28;20233;-78
2022/10/19 10:50:20;;;;;;;17.37;8.43;;;;;;;;;;5073561;28;20566;-85
2022/10/19 10:52:57;;;;;;;11.93;7.57;;;;;;;;;;5073715;28;20451;-85
2022/10/19 10:55:25;;;;;;;10.80;7.73;;;;;;;;;;5072452;28;20204;-84
2022/10/19 10:57:54;;;;;;;11.67;7.93;;;;;;;;;;5072433;28;20286;-85
2022/10/19 11:00:22;;;;;;;10.50;7.23;;;;;;;;;;5087588;28;20878;-84
2022/10/19 11:02:52;;;;;;;9.63;7.93;;;;;;;;;;5076023;28;20255;-86
2022/10/19 11:05:23;;;;;;;12.30;7.73;;;;;;;;;;5073235;28;20218;-87
2022/10/19 11:07:53;;;;;;;13.60;8.50;;;;;;;;;;5073529;28;20237;-88
2022/10/19 11:10:27;;;;;;;11.17;7.60;;;;;;;;;;5074535;28;20193;-87
2022/10/19 11:12:56;;;;;;;11.93;8.37;;;;;;;;;;5073523;28;20233;-88
2022/10/19 11:15:26;;;;;;;12.93;8.47;;;;;;;;;;5073835;28;20197;-87
2022/10/19 11:17:59;;;;;;;11.57;8.07;;;;;;;;;;5073937;28;20243;-85
2022/10/19 11:20:29;;;;;;;11.33;7.60;;;;;;;;;;5056049;28;20658;-85
2022/10/19 11:23:02;;;;;;;9.97;8.00;;;;;;;;;;5056311;28;20221;-86
2022/10/19 11:25:33;;;;;;;10.10;6.90;;;;;;;;;;5072125;28;20208;-84
2022/10/19 11:28:07;;;;;;;11.17;7.00;;;;;;;;;;5071825;28;20237;-83
2022/10/19 11:30:38;;;;;;;12.90;7.43;;;;;;;;;;5071520;28;20201;-83
2022/10/19 11:33:07;;;;;;;11.37;8.00;;;;;;;;;;5071473;28;20229;-83
2022/10/19 11:35:43;;;;;;;12.27;7.27;;;;;;;;;;5072335;28;20205;-83
2022/10/19 11:38:16;;;;;;;9.17;7.20;;;;;;;;;;5071417;28;20241;-83
2022/10/19 11:40:47;;;;;;;9.60;6.53;;;;;;;;;;5052321;28;20198;-82
2022/10/19 11:43:18;;;;;;;8.97;6.30;;;;;;;;;;5051600;28;20241;-83
2022/10/19 11:45:51;;;;;;;8.00;5.50;;;;;;;;;;5069960;28;20221;-83
2022/10/19 11:48:33;;;;;;;7.47;5.53;;;;;;;;;;5071311;28;20612;-83
2022/10/19 11:51:03;;;;;;;9.33;6.73;;;;;;;;;;5083387;28;20204;-85
2022/10/19 11:53:34;;;;;;;7.70;6.07;;;;;;;;;;5091928;28;20692;-85
2022/10/19 11:56:03;;;;;;;11.57;6.63;;;;;;;;;;5092503;28;20189;-84
2022/10/19 11:58:35;;;;;;;8.53;6.20;;;;;;;;;;5080558;28;20248;-84
2022/10/19 12:01:06;;;;;;;7.80;5.83;;;;;;;;;;5072147;28;20201;-84
2022/10/19 12:03:40;;;;;;;9.50;5.83;;;;;;;;;;5071511;28;20237;-84
2022/10/19 12:06:14;;;;;;;9.00;6.23;;;;;;;;;;5071837;28;20206;-84
2022/10/19 12:08:47;;;;;;;7.70;6.07;;;;;;;;;;5071194;28;20260;-84
2022/10/19 12:11:23;;;;;;;7.17;5.80;;;;;;;;;;5072170;28;20198;-85
2022/10/19 12:13:52;;;;;;;7.83;6.27;;;;;;;;;;5071177;28;20237;-84
2022/10/19 12:16:21;;;;;;;9.87;5.73;;;;;;;;;;5072052;28;20197;-84
2022/10/19 12:18:49;;;;;;;8.20;6.03;;;;;;;;;;5070902;28;20259;-85
2022/10/19 12:21:23;;;;;;;7.23;5.90;;;;;;;;;;5071492;28;20543;-84
2022/10/19 12:23:51;;;;;;;8.37;6.47;;;;;;;;;;5070847;28;20224;-84
2022/10/19 12:26:20;;;;;;;9.57;6.97;;;;;;;;;;5071798;28;20224;-84
2022/10/19 12:28:49;;;;;;;8.97;6.90;;;;;;;;;;5071108;28;20236;-84
2022/10/19 12:31:16;;;;;;;8.00;7.13;;;;;;;;;;5071802;28;20583;-85
2022/10/19 12:33:46;;;;;;;7.50;6.77;;;;;;;;;;5071167;28;20235;-84
2022/10/19 12:36:20;;;;;;;6.70;6.00;;;;;;;;;;5071567;28;20212;-85
2022/10/19 12:38:52;;;;;;;8.10;6.73;;;;;;;;;;5070757;28;20268;-84
2022/10/19 12:41:24;;;;;;;8.80;6.40;;;;;;;;;;5051881;28;20558;-85
2022/10/19 12:44:03;;;;;;;8.53;6.30;;;;;;;;;;5051301;28;20744;-85
2022/10/19 12:46:34;;;;;;;7.63;6.83;;;;;;;;;;5051639;28;20210;-85
2022/10/19 12:49:20;;;;;;;8.23;6.43;;;;;;;;;;5050775;28;20238;-85
2022/10/19 12:51:47;;;;;;;8.63;6.43;;;;;;;;;;5051206;28;20205;-86
2022/10/19 12:54:15;;;;;;;9.27;6.63;;;;;;;;;;5051789;28;20213;-85
2022/10/19 12:56:50;;;;;;;8.60;7.20;;;;;;;;;;5051392;28;20678;-82
2022/10/19 12:59:23;;;;;;;9.00;6.77;;;;;;;;;;5031176;28;20275;-83
2022/10/19 13:01:50;;;;;;;7.40;6.60;;;;;;;;;;5035094;28;20205;-84
2022/10/19 13:04:19;;;;;;;9.20;6.37;;;;;;;;;;5071079;28;20570;-85
2022/10/19 13:06:49;;;;;;;8.27;6.77;;;;;;;;;;5071039;28;20217;-84
2022/10/19 13:09:25;;;;;;;9.03;6.20;;;;;;;;;;5071373;28;20233;-86
2022/10/19 13:12:11;;;;;;;10.37;5.90;;;;;;;;;;5071420;28;20208;-86
2022/10/19 13:14:44;;;;;;;10.73;5.97;;;;;;;;;;5071675;28;20209;-86
2022/10/19 13:17:39;;;;;;;8.83;6.73;;;;;;;;;;5070878;28;20298;-86
2022/10/19 13:20:25;;;;;;;6.30;5.70;;;;;;;;;;5071171;28;20267;-84
2022/10/19 13:23:12;;;;;;;9.37;6.63;;;;;;;;;;5070831;28;20229;-85
2022/10/19 13:25:41;;;;;;;8.07;6.60;;;;;;;;;;5050541;28;20226;-86
2022/10/19 13:28:27;;;;;;;5.90;5.30;;;;;;;;;;5052512;28;20753;-85
2022/10/19 13:31:03;;;;;;;5.70;5.10;;;;;;;;;;5070089;28;20692;-85
2022/10/19 13:33:54;;;;;;;5.93;5.10;;;;;;;;;;5072747;28;20231;-85
2022/10/19 13:36:23;;;;;;;6.37;5.30;;;;;;;;;;5058612;28;20269;-85
2022/10/19 13:39:04;;;;;;;7.63;5.17;;;;;;;;;;5073862;28;20229;-86
2022/10/19 13:41:47;;;;;;;6.53;5.27;;;;;;;;;;5074947;28;20244;-86
2022/10/19 13:44:19;;;;;;;5.97;4.90;;;;;;;;;;5070447;28;20321;-88
2022/10/19 13:46:55;;;;;;;6.87;4.93;;;;;;;;;;5074192;28;20704;-86
2022/10/19 13:49:43;;;;;;;6.57;4.83;;;;;;;;;;5074692;28;20233;-88
2022/10/19 13:52:25;;;;;;;6.97;5.07;;;;;;;;;;5074822;28;20224;-87
2022/10/19 13:55:03;;;;;;;7.33;6.03;;;;;;;;;;5065988;28;20201;-86
2022/10/19 13:57:42;;;;;;;7.57;5.57;;;;;;;;;;5073977;28;20722;-86
2022/10/19 14:00:15;;;;;;;9.40;5.53;;;;;;;;;;5074588;28;20209;-87
2022/10/19 14:02:56;;;;;;;7.03;6.00;;;;;;;;;;5074258;28;20650;-87
2022/10/19 14:05:39;;;;;;;8.40;6.57;;;;;;;;;;5074970;28;20231;-87
2022/10/19 14:08:10;;;;;;;8.60;6.37;;;;;;;;;;5065303;28;20475;-86
2022/10/19 14:10:38;;;;;;;7.20;6.07;;;;;;;;;;5074343;28;20217;-84
2022/10/19 14:13:07;;;;;;;8.43;5.63;;;;;;;;;;5073969;28;20229;-86
2022/10/19 14:15:35;;;;;;;6.97;5.87;;;;;;;;;;5074787;28;20206;-86
2022/10/19 14:18:02;;;;;;;8.03;6.07;;;;;;;;;;5073193;28;20241;-85
2022/10/19 14:20:30;;;;;;;8.13;5.90;;;;;;;;;;5073889;28;20730;-85
2022/10/19 14:22:58;;;;;;;8.20;6.60;;;;;;;;;;5073740;28;20233;-88
2022/10/19 14:25:26;;;;;;;8.13;6.73;;;;;;;;;;5074351;28;20232;-86
2022/10/19 14:28:05;;;;;;;7.60;6.10;;;;;;;;;;5073570;28;20244;-87
2022/10/19 14:30:35;;;;;;;9.23;6.63;;;;;;;;;;5074357;28;20209;-85
2022/10/19 14:33:07;;;;;;;8.47;6.13;;;;;;;;;;5073506;28;20330;-85
2022/10/19 14:35:36;;;;;;;7.57;6.23;;;;;;;;;;5074225;28;20185;-86
2022/10/19 14:38:03;;;;;;;9.03;6.57;;;;;;;;;;5073109;28;20816;-86
2022/10/19 14:40:31;;;;;;;8.83;6.40;;;;;;;;;;5073985;28;20209;-86